Time;durP1;ratioP1;P1;durP2;ratioP2;P2;SDS_P1;SDS_P2;PMS_P1;PMS_P2;Temp;Humidity;BMP_temperature;BMP_pressure;BME280_temperature;BME280_humidity;BME280_pressure;Samples;Min_cycle;Max_cycle;Signal;HPM_P1;HPM_P2
2022/07/31 00:01:24;;;;;;;;;;;;;;;-140.72;100.00;52261.00;5065089;28;19920;-68
2022/07/31 00:03:51;;;;;;;;;;;;;;;-140.72;100.00;52293.47;5055119;28;20468;-68
2022/07/31 00:06:18;;;;;;;;;;;;;;;-140.72;100.00;52240.72;5065424;28;20363;-68
2022/07/31 00:08:43;;;;;;;;;;;;;;;-140.72;100.00;52271.16;5072904;28;20364;-67
2022/07/31 00:11:10;;;;;;;;;;;;;;;-140.72;100.00;52261.00;5073204;28;19923;-67
2022/07/31 00:13:35;;;;;;;;;;;;;;;-140.72;100.00;52256.94;5060392;28;19916;-66
2022/07/31 00:16:01;;;;;;;;;;;;;;;-140.72;100.00;52258.97;5073675;28;20454;-65
2022/07/31 00:18:26;;;;;;;;;;;;;;;-140.72;100.00;52293.47;5055387;28;20384;-66
2022/07/31 00:20:51;;;;;;;;;;;;;;;-140.72;100.00;52275.19;5073026;28;20434;-65
2022/07/31 00:23:16;;;;;;;;;;;;;;;-140.72;100.00;52285.34;5072865;28;20011;-66
2022/07/31 00:25:41;;;;;;;;;;;;;;;-140.72;100.00;52271.16;5073347;28;19917;-66
2022/07/31 00:28:07;;;;;;;;;;;;;;;-140.72;100.00;52285.34;5054604;28;19916;-66
2022/07/31 00:30:32;;;;;;;;;;;;;;;-140.72;100.00;52261.00;5055592;28;19928;-66
2022/07/31 00:32:57;;;;;;;;;;;;;;;-140.72;100.00;52258.97;5055248;28;19917;-65
2022/07/31 00:35:22;;;;;;;;;;;;;;;-140.72;100.00;52265.06;5063557;28;20003;-64
2022/07/31 00:37:48;;;;;;;;;;;;;;;-140.72;100.00;52263.03;5055261;28;19920;-66
2022/07/31 00:40:14;;;;;;;;;;;;;;;-140.72;100.00;52283.31;5073125;28;19917;-65
2022/07/31 00:42:40;;;;;;;;;;;;;;;-140.72;100.00;52248.81;5054674;28;19928;-66
2022/07/31 00:45:05;;;;;;;;;;;;;;;-140.72;100.00;52275.19;5072554;28;19921;-64
2022/07/31 00:47:30;;;;;;;;;;;;;;;-140.72;100.00;52250.84;5054995;28;19916;-65
2022/07/31 00:49:56;;;;;;;;;;;;;;;-140.72;100.00;52244.78;5074266;28;20295;-67
2022/07/31 00:52:21;;;;;;;;;;;;;;;-140.72;100.00;52293.47;5071774;28;19970;-65
2022/07/31 00:54:47;;;;;;;;;;;;;;;-140.72;100.00;52277.22;5072304;28;20391;-66
2022/07/31 00:57:14;;;;;;;;;;;;;;;-140.72;100.00;52265.06;5067145;28;19917;-66
2022/07/31 00:59:39;;;;;;;;;;;;;;;-140.72;100.00;52281.28;5055201;28;19917;-65
2022/07/31 01:02:04;;;;;;;;;;;;;;;-140.72;100.00;52293.47;5072490;28;19928;-66
2022/07/31 01:04:29;;;;;;;;;;;;;;;-140.72;100.00;52305.63;5073473;28;20387;-66
2022/07/31 01:06:55;;;;;;;;;;;;;;;-140.72;100.00;52293.47;5040308;28;20277;-65
2022/07/31 01:09:20;;;;;;;;;;;;;;;-140.72;100.00;52315.78;5063572;28;20371;-66
2022/07/31 01:11:47;;;;;;;;;;;;;;;-140.72;100.00;52265.06;5068813;28;19924;-67
2022/07/31 01:14:12;;;;;;;;;;;;;;;-140.72;100.00;52293.47;5072690;28;20390;-65
2022/07/31 01:16:41;;;;;;;;;;;;;;;-140.72;100.00;52267.09;5072264;28;19925;-66
2022/07/31 01:19:22;;;;;;;;;;;;;;;-140.72;100.00;52295.50;5073221;28;20008;-65
2022/07/31 01:22:10;;;;;;;;;;;;;;;-140.72;100.00;52279.25;5072167;28;19916;-65
2022/07/31 01:24:35;;;;;;;;;;;;;;;-140.72;100.00;52277.22;5034505;28;19964;-66
2022/07/31 01:27:09;;;;;;;;;;;;;;;-140.72;100.00;52291.44;5072406;28;20379;-65
2022/07/31 01:29:37;;;;;;;;;;;;;;;-140.72;100.00;52279.25;5052357;28;19969;-66
2022/07/31 01:32:02;;;;;;;;;;;;;;;-140.72;100.00;52317.81;5062285;28;19916;-65
2022/07/31 01:34:47;;;;;;;;;;;;;;;-140.72;100.00;52291.44;5069501;28;20007;-66
2022/07/31 01:37:26;;;;;;;;;;;;;;;-140.72;100.00;52301.59;5063414;28;19948;-66
2022/07/31 01:39:56;;;;;;;;;;;;;;;-140.72;100.00;52301.59;5035206;28;19970;-66
2022/07/31 01:42:23;;;;;;;;;;;;;;;-140.72;100.00;52301.59;5067046;28;19916;-66
2022/07/31 01:44:51;;;;;;;;;;;;;;;-140.72;100.00;52303.59;5054971;28;20015;-66
2022/07/31 01:47:19;;;;;;;;;;;;;;;-140.72;100.00;52271.16;5073617;28;20012;-65
2022/07/31 01:49:45;;;;;;;;;;;;;;;-140.72;100.00;52309.69;5057731;28;20383;-65
2022/07/31 01:52:11;;;;;;;;;;;;;;;-140.72;100.00;52311.72;5075652;28;19923;-65
2022/07/31 01:54:37;;;;;;;;;;;;;;;-140.72;100.00;52307.66;5076101;28;19942;-66
2022/07/31 01:57:03;;;;;;;;;;;;;;;-140.72;100.00;52285.34;5075948;28;19999;-65
2022/07/31 01:59:29;;;;;;;;;;;;;;;-140.72;100.00;52285.34;5064408;28;19917;-67
2022/07/31 02:01:56;;;;;;;;;;;;;;;-140.72;100.00;52289.41;5052918;28;20409;-66
2022/07/31 02:04:21;;;;;;;;;;;;;;;-140.72;100.00;52297.53;5061685;28;20007;-66
2022/07/31 02:06:48;;;;;;;;;;;;;;;-140.72;100.00;52307.66;5052206;28;19956;-67
2022/07/31 02:09:14;;;;;;;;;;;;;;;-140.72;100.00;52313.75;5057727;28;20457;-66
2022/07/31 02:11:40;;;;;;;;;;;;;;;-140.72;100.00;52281.28;5075481;28;19916;-67
2022/07/31 02:14:06;;;;;;;;;;;;;;;-140.72;100.00;52327.97;5076094;28;19927;-66
2022/07/31 02:16:31;;;;;;;;;;;;;;;-140.72;100.00;52285.34;5074192;28;19917;-67
2022/07/31 02:18:58;;;;;;;;;;;;;;;-140.72;100.00;52271.16;5046942;28;19916;-66
2022/07/31 02:21:24;;;;;;;;;;;;;;;-140.72;100.00;52269.13;5072167;28;20364;-67
2022/07/31 02:23:50;;;;;;;;;;;;;;;-140.72;100.00;52330.00;5069900;28;19935;-67
2022/07/31 02:26:15;;;;;;;;;;;;;;;-140.72;100.00;52293.47;5074135;28;19956;-67
2022/07/31 02:28:42;;;;;;;;;;;;;;;-140.72;100.00;52307.66;5070947;28;19967;-66
2022/07/31 02:31:09;;;;;;;;;;;;;;;-140.72;100.00;52291.44;5075101;28;20287;-67
2022/07/31 02:33:36;;;;;;;;;;;;;;;-140.72;100.00;52291.44;5085604;22;19990;-66
2022/07/31 02:36:01;;;;;;;;;;;;;;;-140.72;100.00;52342.16;5046284;28;19921;-66
2022/07/31 02:38:27;;;;;;;;;;;;;;;-140.72;100.00;52305.63;5052048;28;20016;-64
2022/07/31 02:40:56;;;;;;;;;;;;;;;-140.72;100.00;52289.41;5041221;28;20325;-66
2022/07/31 02:43:22;;;;;;;;;;;;;;;-140.72;100.00;52287.38;5047536;28;19917;-66
2022/07/31 02:45:48;;;;;;;;;;;;;;;-140.72;100.00;52303.59;5050818;28;20258;-66
2022/07/31 02:48:13;;;;;;;;;;;;;;;-140.72;100.00;52297.53;5037871;28;19917;-66
2022/07/31 02:50:39;;;;;;;;;;;;;;;-140.72;100.00;52342.16;5051344;28;19917;-67
2022/07/31 02:53:04;;;;;;;;;;;;;;;-140.72;100.00;52336.06;5043659;28;20268;-66
2022/07/31 02:55:30;;;;;;;;;;;;;;;-140.72;100.00;52305.63;5057700;28;19949;-66
2022/07/31 02:57:55;;;;;;;;;;;;;;;-140.72;100.00;52340.13;5041037;28;20023;-65
2022/07/31 03:00:25;;;;;;;;;;;;;;;-140.72;100.00;52325.94;5062069;28;19928;-65
2022/07/31 03:02:54;;;;;;;;;;;;;;;-140.72;100.00;52338.09;5048516;28;20000;-67
2022/07/31 03:05:20;;;;;;;;;;;;;;;-140.72;100.00;52325.94;5038544;28;19917;-67
2022/07/31 03:07:45;;;;;;;;;;;;;;;-140.72;100.00;52289.41;5057533;28;20300;-65
2022/07/31 03:10:11;;;;;;;;;;;;;;;-140.72;100.00;52336.06;5040199;28;20340;-65
2022/07/31 03:12:42;;;;;;;;;;;;;;;-140.72;100.00;52313.75;5046868;28;19940;-66
2022/07/31 03:15:12;;;;;;;;;;;;;;;-140.72;100.00;52287.38;5058746;28;19947;-66
2022/07/31 03:17:39;;;;;;;;;;;;;;;-140.72;100.00;52267.09;5057449;28;19924;-66
2022/07/31 03:20:05;;;;;;;;;;;;;;;-140.72;100.00;52346.22;5052582;28;19916;-66
2022/07/31 03:22:30;;;;;;;;;;;;;;;-140.72;100.00;52346.22;5046746;28;19921;-66
2022/07/31 03:24:56;;;;;;;;;;;;;;;-140.72;100.00;52311.72;5052106;28;19972;-65
2022/07/31 03:27:21;;;;;;;;;;;;;;;-140.72;100.00;52275.19;5056191;28;19916;-66
2022/07/31 03:29:47;;;;;;;;;;;;;;;-140.72;100.00;52297.53;5033362;28;19925;-67
2022/07/31 03:32:12;;;;;;;;;;;;;;;-140.72;100.00;52332.03;5044832;28;19920;-65
2022/07/31 03:34:37;;;;;;;;;;;;;;;-140.72;100.00;52321.88;5016965;28;20021;-66
2022/07/31 03:37:02;;;;;;;;;;;;;;;-140.72;100.00;52321.88;5031791;28;19917;-66
2022/07/31 03:39:28;;;;;;;;;;;;;;;-140.72;100.00;52315.78;5035975;28;20364;-65
2022/07/31 03:41:55;;;;;;;;;;;;;;;-140.72;100.00;52287.38;5025026;28;20314;-66
2022/07/31 03:44:20;;;;;;;;;;;;;;;-140.72;100.00;52313.75;5033483;28;19960;-66
2022/07/31 03:46:45;;;;;;;;;;;;;;;-140.72;100.00;52297.53;5026194;28;19944;-66
2022/07/31 03:49:11;;;;;;;;;;;;;;;-140.72;100.00;52297.53;5033690;28;19956;-66
2022/07/31 03:51:36;;;;;;;;;;;;;;;-140.72;100.00;52303.59;5036351;28;19976;-67
2022/07/31 03:54:02;;;;;;;;;;;;;;;-140.72;100.00;52301.59;5035322;28;20011;-67
2022/07/31 03:56:28;;;;;;;;;;;;;;;-140.72;100.00;52315.78;5014892;28;19924;-66
2022/07/31 03:58:53;;;;;;;;;;;;;;;-140.72;100.00;52323.91;5017867;28;19961;-66
2022/07/31 04:01:19;;;;;;;;;;;;;;;-140.72;100.00;52301.59;4999424;28;19918;-66
2022/07/31 04:03:44;;;;;;;;;;;;;;;-140.72;100.00;52330.00;5021869;28;19936;-66
2022/07/31 04:06:09;;;;;;;;;;;;;;;-140.72;100.00;52309.69;5026499;28;20008;-67
2022/07/31 04:08:34;;;;;;;;;;;;;;;-140.72;100.00;52317.81;5016559;28;19917;-65
2022/07/31 04:10:59;;;;;;;;;;;;;;;-140.72;100.00;52350.28;5029015;28;20407;-66
2022/07/31 04:13:25;;;;;;;;;;;;;;;-140.72;100.00;52340.13;5035221;28;19987;-67
2022/07/31 04:15:50;;;;;;;;;;;;;;;-140.72;100.00;52336.06;5016171;28;20288;-66
2022/07/31 04:18:16;;;;;;;;;;;;;;;-140.72;100.00;52325.94;5035716;28;20364;-66
2022/07/31 04:20:42;;;;;;;;;;;;;;;-140.72;100.00;52358.41;5035474;28;19925;-67
2022/07/31 04:23:07;;;;;;;;;;;;;;;-140.72;100.00;52305.63;5017163;28;20016;-67
2022/07/31 04:25:32;;;;;;;;;;;;;;;-140.72;100.00;52321.88;5017879;28;20328;-65
2022/07/31 04:27:58;;;;;;;;;;;;;;;-140.72;100.00;52291.44;5024994;28;19996;-65
2022/07/31 04:30:24;;;;;;;;;;;;;;;-140.72;100.00;52358.41;5031052;28;19917;-66
2022/07/31 04:32:49;;;;;;;;;;;;;;;-140.72;100.00;52325.94;5033854;28;19927;-66
2022/07/31 04:35:14;;;;;;;;;;;;;;;-140.72;100.00;52305.63;5035202;28;19961;-65
2022/07/31 04:37:39;;;;;;;;;;;;;;;-140.72;100.00;52321.88;5025877;28;19921;-66
2022/07/31 04:40:05;;;;;;;;;;;;;;;-140.72;100.00;52330.00;5025640;28;20026;-66
2022/07/31 04:42:30;;;;;;;;;;;;;;;-140.72;100.00;52299.56;5027656;28;19945;-67
2022/07/31 04:44:55;;;;;;;;;;;;;;;-140.72;100.00;52350.28;5032261;28;19931;-66
2022/07/31 04:47:21;;;;;;;;;;;;;;;-140.72;100.00;52344.19;5031629;28;19917;-64
2022/07/31 04:49:46;;;;;;;;;;;;;;;-140.72;100.00;52366.50;5032208;28;19960;-66
2022/07/31 04:52:11;;;;;;;;;;;;;;;-140.72;100.00;52295.50;5031357;28;19972;-65
2022/07/31 04:54:37;;;;;;;;;;;;;;;-140.72;100.00;52289.41;5017172;28;19918;-67
2022/07/31 04:57:02;;;;;;;;;;;;;;;-140.72;100.00;52295.50;5032096;28;19917;-66
2022/07/31 04:59:28;;;;;;;;;;;;;;;-140.72;100.00;52305.63;5034909;28;20012;-66
2022/07/31 05:01:53;;;;;;;;;;;;;;;-140.72;100.00;52317.81;5033649;28;19917;-65
2022/07/31 05:04:18;;;;;;;;;;;;;;;-140.72;100.00;52327.97;5031326;28;19987;-66
2022/07/31 05:06:44;;;;;;;;;;;;;;;-140.72;100.00;52334.03;5029082;28;19918;-67
2022/07/31 05:09:14;;;;;;;;;;;;;;;-140.72;100.00;52309.69;5034837;28;19987;-65
2022/07/31 05:11:40;;;;;;;;;;;;;;;-140.72;100.00;52332.03;5018890;28;19984;-67
2022/07/31 05:14:06;;;;;;;;;;;;;;;-140.72;100.00;52317.81;5035419;28;20008;-67
2022/07/31 05:16:32;;;;;;;;;;;;;;;-140.72;100.00;52323.91;5017023;28;19936;-64
2022/07/31 05:18:58;;;;;;;;;;;;;;;-140.72;100.00;52344.19;5034878;28;19936;-66
2022/07/31 05:21:25;;;;;;;;;;;;;;;-140.72;100.00;52301.59;5034992;28;20276;-65
2022/07/31 05:23:51;;;;;;;;;;;;;;;-140.72;100.00;52354.34;5020771;28;19935;-66
2022/07/31 05:26:17;;;;;;;;;;;;;;;-140.72;100.00;52330.00;5030451;28;19925;-65
2022/07/31 05:28:43;;;;;;;;;;;;;;;-140.72;100.00;52330.00;5034357;28;19967;-66
2022/07/31 05:31:09;;;;;;;;;;;;;;;-140.72;100.00;52325.94;5021596;28;19924;-66
2022/07/31 05:33:35;;;;;;;;;;;;;;;-140.72;100.00;52307.66;5016108;28;19925;-65
2022/07/31 05:36:00;;;;;;;;;;;;;;;-140.72;100.00;52338.09;5038919;28;19968;-65
2022/07/31 05:38:26;;;;;;;;;;;;;;;-140.72;100.00;52283.31;5021161;28;19917;-66
2022/07/31 05:40:52;;;;;;;;;;;;;;;-140.72;100.00;52295.50;5036053;28;19925;-67
2022/07/31 05:43:17;;;;;;;;;;;;;;;-140.72;100.00;52323.91;5009680;28;19917;-67
2022/07/31 05:45:42;;;;;;;;;;;;;;;-140.72;100.00;52364.47;5029876;28;19917;-66
2022/07/31 05:48:08;;;;;;;;;;;;;;;-140.72;100.00;52297.53;5034902;28;19917;-65
2022/07/31 05:50:33;;;;;;;;;;;;;;;-140.72;100.00;52327.97;5035434;28;19917;-66
2022/07/31 05:52:59;;;;;;;;;;;;;;;-140.72;100.00;52334.03;5021135;28;19924;-65
2022/07/31 05:55:24;;;;;;;;;;;;;;;-140.72;100.00;52334.03;5035141;28;19939;-66
2022/07/31 05:57:49;;;;;;;;;;;;;;;-140.72;100.00;52293.47;5035956;28;20007;-66
2022/07/31 06:00:17;;;;;;;;;;;;;;;-140.72;100.00;52327.97;5034987;28;19986;-65
2022/07/31 06:02:43;;;;;;;;;;;;;;;-140.72;100.00;52305.63;5036352;28;19917;-67
2022/07/31 06:05:08;;;;;;;;;;;;;;;-140.72;100.00;52334.03;5020065;28;19923;-66
2022/07/31 06:07:33;;;;;;;;;;;;;;;-140.72;100.00;52332.03;5034561;28;19918;-66
2022/07/31 06:09:59;;;;;;;;;;;;;;;-140.72;100.00;52315.78;5037898;28;19963;-67
2022/07/31 06:12:24;;;;;;;;;;;;;;;-140.72;100.00;52295.50;5038082;28;19917;-67
2022/07/31 06:14:49;;;;;;;;;;;;;;;-140.72;100.00;52297.53;5037303;28;19928;-65
2022/07/31 06:17:14;;;;;;;;;;;;;;;-140.72;100.00;52289.41;5027802;28;19993;-66
2022/07/31 06:19:40;;;;;;;;;;;;;;;-140.72;100.00;52307.66;5035845;28;19928;-65
2022/07/31 06:22:05;;;;;;;;;;;;;;;-140.72;100.00;52319.84;5033858;28;19964;-65
2022/07/31 06:24:32;;;;;;;;;;;;;;;-140.72;100.00;52342.16;5037915;28;19921;-65
2022/07/31 06:26:58;;;;;;;;;;;;;;;-140.72;100.00;52313.75;5037939;28;19986;-66
2022/07/31 06:29:23;;;;;;;;;;;;;;;-140.72;100.00;52293.47;5035155;28;20012;-65
2022/07/31 06:31:49;;;;;;;;;;;;;;;-140.72;100.00;52301.59;5034589;28;20340;-67
2022/07/31 06:34:14;;;;;;;;;;;;;;;-140.72;100.00;52325.94;5033969;28;20272;-66
2022/07/31 06:36:39;;;;;;;;;;;;;;;-140.72;100.00;52319.84;5020137;28;19936;-66
2022/07/31 06:39:04;;;;;;;;;;;;;;;-140.72;100.00;52273.19;5033682;28;19940;-66
2022/07/31 06:41:48;;;;;;;;;;;;;;;-140.72;100.00;52305.63;5028167;28;19958;-66
2022/07/31 06:44:14;;;;;;;;;;;;;;;-140.72;100.00;52342.16;5019669;28;20325;-65
2022/07/31 06:46:39;;;;;;;;;;;;;;;-140.72;100.00;52313.75;5031977;28;19943;-66
2022/07/31 06:49:04;;;;;;;;;;;;;;;-140.72;100.00;52289.41;5032407;28;19957;-66
2022/07/31 06:51:30;;;;;;;;;;;;;;;-140.72;100.00;52285.34;5031609;28;20003;-66
2022/07/31 06:53:55;;;;;;;;;;;;;;;-140.72;100.00;52334.03;5030491;28;19925;-65
2022/07/31 06:56:21;;;;;;;;;;;;;;;-140.72;100.00;52319.84;5033292;28;19917;-66
2022/07/31 06:58:46;;;;;;;;;;;;;;;-140.72;100.00;52285.34;5034016;28;19917;-67
2022/07/31 07:01:11;;;;;;;;;;;;;;;-140.72;100.00;52297.53;5036929;28;19925;-67
2022/07/31 07:03:36;;;;;;;;;;;;;;;-140.72;100.00;52271.16;5029430;28;20365;-67
2022/07/31 07:06:02;;;;;;;;;;;;;;;-140.72;100.00;52293.47;5019824;28;19924;-65
2022/07/31 07:08:28;;;;;;;;;;;;;;;-140.72;100.00;52273.19;5031124;28;19917;-66
2022/07/31 07:10:53;;;;;;;;;;;;;;;-140.72;100.00;52265.06;5037270;28;20288;-66
2022/07/31 07:13:18;;;;;;;;;;;;;;;-140.72;100.00;52315.78;5031081;28;20513;-65
2022/07/31 07:15:44;;;;;;;;;;;;;;;-140.72;100.00;52303.59;5034228;28;19939;-66
2022/07/31 07:18:09;;;;;;;;;;;;;;;-140.72;100.00;52330.00;5032174;28;19925;-66
2022/07/31 07:20:34;;;;;;;;;;;;;;;-140.72;100.00;52273.19;5017691;28;20417;-67
2022/07/31 07:22:59;;;;;;;;;;;;;;;-140.72;100.00;52285.34;5024728;28;19932;-66
2022/07/31 07:25:25;;;;;;;;;;;;;;;-140.72;100.00;52293.47;5021659;28;19970;-66
2022/07/31 07:27:50;;;;;;;;;;;;;;;-140.72;100.00;52281.28;5030801;28;19944;-65
2022/07/31 07:30:15;;;;;;;;;;;;;;;-140.72;100.00;52307.66;5032785;28;19917;-65
2022/07/31 07:32:40;;;;;;;;;;;;;;;-140.72;100.00;52291.44;5027298;28;20218;-65
2022/07/31 07:35:08;;;;;;;;;;;;;;;-140.72;100.00;52299.56;5031813;28;20340;-66
2022/07/31 07:37:33;;;;;;;;;;;;;;;-140.72;100.00;52317.81;5032774;28;20035;-66
2022/07/31 07:39:58;;;;;;;;;;;;;;;-140.72;100.00;52303.59;5015079;28;19952;-66
2022/07/31 07:42:23;;;;;;;;;;;;;;;-140.72;100.00;52289.41;5034141;28;19937;-66
2022/07/31 07:44:49;;;;;;;;;;;;;;;-140.72;100.00;52299.56;5027839;28;19917;-65
2022/07/31 07:47:14;;;;;;;;;;;;;;;-140.72;100.00;52285.34;5017940;28;19917;-65
2022/07/31 07:49:39;;;;;;;;;;;;;;;-140.72;100.00;52307.66;5028759;28;19924;-66
2022/07/31 07:52:04;;;;;;;;;;;;;;;-140.72;100.00;52315.78;5029008;28;19917;-65
2022/07/31 07:54:29;;;;;;;;;;;;;;;-140.72;100.00;52338.09;5034918;28;19921;-65
2022/07/31 07:56:55;;;;;;;;;;;;;;;-140.72;100.00;52305.63;5034334;28;19917;-66
2022/07/31 07:59:20;;;;;;;;;;;;;;;-140.72;100.00;52346.22;5035843;28;20356;-66
2022/07/31 08:01:45;;;;;;;;;;;;;;;-140.72;100.00;52330.00;5034567;28;19972;-66
2022/07/31 08:04:10;;;;;;;;;;;;;;;-140.72;100.00;52271.16;5035035;28;19917;-66
2022/07/31 08:06:36;;;;;;;;;;;;;;;-140.72;100.00;52309.69;5035552;28;20425;-66
2022/07/31 08:09:02;;;;;;;;;;;;;;;-140.72;100.00;52325.94;5032959;28;19928;-66
2022/07/31 08:11:27;;;;;;;;;;;;;;;-140.72;100.00;52346.22;5000705;28;20284;-66
2022/07/31 08:13:52;;;;;;;;;;;;;;;-140.72;100.00;52330.00;5027549;28;19921;-65
2022/07/31 08:16:19;;;;;;;;;;;;;;;-140.72;100.00;52313.75;5029835;28;20339;-66
2022/07/31 08:18:44;;;;;;;;;;;;;;;-140.72;100.00;52315.78;5027737;28;19917;-65
2022/07/31 08:21:10;;;;;;;;;;;;;;;-140.72;100.00;52297.53;5031421;28;19999;-66
2022/07/31 08:23:35;;;;;;;;;;;;;;;-140.72;100.00;52307.66;5018344;28;19971;-66
2022/07/31 08:26:03;;;;;;;;;;;;;;;-140.72;100.00;52285.34;5029977;28;19925;-66
2022/07/31 08:28:28;;;;;;;;;;;;;;;-140.72;100.00;52297.53;4999280;28;19936;-66
2022/07/31 08:30:53;;;;;;;;;;;;;;;-140.72;100.00;52261.00;4997663;28;19949;-66
2022/07/31 08:33:19;;;;;;;;;;;;;;;-140.72;100.00;52293.47;5026543;28;19957;-66
2022/07/31 08:35:44;;;;;;;;;;;;;;;-140.72;100.00;52281.28;5034125;28;19918;-65
2022/07/31 08:38:09;;;;;;;;;;;;;;;-140.72;100.00;52283.31;5025536;28;20219;-65
2022/07/31 08:40:36;;;;;;;;;;;;;;;-140.72;100.00;52269.13;5021508;28;20308;-66
2022/07/31 08:43:02;;;;;;;;;;;;;;;-140.72;100.00;52250.84;5017876;28;19989;-66
2022/07/31 08:45:28;;;;;;;;;;;;;;;-140.72;100.00;52267.09;5028630;28;19924;-67
2022/07/31 08:47:55;;;;;;;;;;;;;;;-140.72;100.00;52295.50;5034155;28;19952;-67
2022/07/31 08:50:20;;;;;;;;;;;;;;;-140.72;100.00;52238.69;5016414;28;20020;-66
2022/07/31 08:52:48;;;;;;;;;;;;;;;-140.72;100.00;52258.97;5034688;28;20062;-66
2022/07/31 08:55:14;;;;;;;;;;;;;;;-140.72;100.00;52299.56;5034917;28;20008;-66
2022/07/31 08:57:40;;;;;;;;;;;;;;;-140.72;100.00;52271.16;5039044;28;20020;-67
2022/07/31 09:00:06;;;;;;;;;;;;;;;-140.72;100.00;52279.25;5020318;28;20038;-66
2022/07/31 09:02:31;;;;;;;;;;;;;;;-140.72;100.00;52246.78;5038661;28;19923;-65
2022/07/31 09:04:57;;;;;;;;;;;;;;;-140.72;100.00;52307.66;5038970;28;19919;-66
2022/07/31 09:07:22;;;;;;;;;;;;;;;-140.72;100.00;52307.66;5040801;28;20043;-67
2022/07/31 09:09:47;;;;;;;;;;;;;;;-140.72;100.00;52254.91;5026195;28;19917;-66
2022/07/31 09:12:13;;;;;;;;;;;;;;;-140.72;100.00;52252.88;5040230;28;20351;-66
2022/07/31 09:14:38;;;;;;;;;;;;;;;-140.72;100.00;52263.03;5035394;28;19928;-67
2022/07/31 09:17:04;;;;;;;;;;;;;;;-140.72;100.00;52258.97;5020030;28;20395;-67
2022/07/31 09:19:39;;;;;;;;;;;;;;;-140.72;100.00;52269.13;5027665;28;19932;-67
2022/07/31 09:22:05;;;;;;;;;;;;;;;-140.72;100.00;52303.59;5038768;28;19918;-66
2022/07/31 09:24:31;;;;;;;;;;;;;;;-140.72;100.00;52226.50;5033041;28;20015;-66
2022/07/31 09:27:01;;;;;;;;;;;;;;;-140.72;100.00;52281.28;5019865;28;19932;-64
2022/07/31 09:29:36;;;;;;;;;;;;;;;-140.72;100.00;52265.06;5016825;28;19918;-66
2022/07/31 09:32:12;;;;;;;;;;;;;;;-140.72;100.00;52271.16;5020305;28;19968;-66
2022/07/31 09:34:38;;;;;;;;;;;;;;;-140.72;100.00;52334.03;5029969;28;20008;-66
2022/07/31 09:37:14;;;;;;;;;;;;;;;-140.72;100.00;52299.56;5006016;28;20291;-65
2022/07/31 09:39:40;;;;;;;;;;;;;;;-140.72;100.00;52311.72;5029003;28;19918;-65
2022/07/31 09:42:06;;;;;;;;;;;;;;;-140.72;100.00;52309.69;5020904;28;20020;-65
2022/07/31 09:44:38;;;;;;;;;;;;;;;-140.72;100.00;52309.69;5036768;28;20031;-64
2022/07/31 09:47:06;;;;;;;;;;;;;;;-140.72;100.00;52336.06;5024923;28;19918;-67
2022/07/31 09:49:34;;;;;;;;;;;;;;;-140.72;100.00;52313.75;5025235;28;20000;-66
2022/07/31 09:51:59;;;;;;;;;;;;;;;-140.72;100.00;52346.22;5036771;28;19917;-66
2022/07/31 09:54:27;;;;;;;;;;;;;;;-140.72;100.00;52352.31;5024909;28;19924;-67
2022/07/31 09:56:52;;;;;;;;;;;;;;;-140.72;100.00;52348.25;5026638;28;20300;-65
2022/07/31 09:59:17;;;;;;;;;;;;;;;-140.72;100.00;52330.00;5038167;28;19917;-66
2022/07/31 10:01:44;;;;;;;;;;;;;;;-140.72;100.00;52332.03;5035605;28;19923;-67
2022/07/31 10:04:10;;;;;;;;;;;;;;;-140.72;100.00;52344.19;5037203;28;19921;-67
2022/07/31 10:06:36;;;;;;;;;;;;;;;-140.72;100.00;52344.19;5036750;28;19917;-68
2022/07/31 10:09:03;;;;;;;;;;;;;;;-140.72;100.00;52319.84;5026364;28;19967;-65
2022/07/31 10:11:30;;;;;;;;;;;;;;;-140.72;100.00;52362.44;5037141;28;19953;-67
2022/07/31 10:13:58;;;;;;;;;;;;;;;-140.72;100.00;52330.00;5039328;28;19957;-67
2022/07/31 10:16:26;;;;;;;;;;;;;;;-140.72;100.00;52334.03;5038537;28;19917;-67
2022/07/31 10:18:55;;;;;;;;;;;;;;;-140.72;100.00;52366.50;5039554;28;19921;-67
2022/07/31 10:21:23;;;;;;;;;;;;;;;-140.72;100.00;52366.50;5025897;28;19932;-66
2022/07/31 10:23:49;;;;;;;;;;;;;;;-140.72;100.00;52356.38;5037527;28;20365;-66
2022/07/31 10:26:14;;;;;;;;;;;;;;;-140.72;100.00;52358.41;5038144;28;19924;-67
2022/07/31 10:28:40;;;;;;;;;;;;;;;-140.72;100.00;52374.63;5036298;28;20010;-67
2022/07/31 10:31:06;;;;;;;;;;;;;;;-140.72;100.00;52350.28;5037183;28;19944;-66
2022/07/31 10:33:32;;;;;;;;;;;;;;;-140.72;100.00;52321.88;5037873;28;19988;-66
2022/07/31 10:35:57;;;;;;;;;;;;;;;-140.72;100.00;52352.31;5023449;28;19932;-66
2022/07/31 10:38:24;;;;;;;;;;;;;;;-140.72;100.00;52368.53;5024784;28;19918;-66
2022/07/31 10:41:02;;;;;;;;;;;;;;;-140.72;100.00;52342.16;5020398;28;19923;-67
2022/07/31 10:43:34;;;;;;;;;;;;;;;-140.72;100.00;52370.56;5036903;28;19987;-66
2022/07/31 10:46:00;;;;;;;;;;;;;;;-140.72;100.00;52354.34;5011418;28;19925;-66
2022/07/31 10:48:26;;;;;;;;;;;;;;;-140.72;100.00;52356.38;5029795;28;19918;-66
2022/07/31 10:51:01;;;;;;;;;;;;;;;-140.72;100.00;52342.16;5034559;28;19944;-67
2022/07/31 10:53:26;;;;;;;;;;;;;;;-140.72;100.00;52330.00;5029787;28;20218;-67
2022/07/31 10:56:09;;;;;;;;;;;;;;;-140.72;100.00;52356.38;5029784;28;19916;-65
2022/07/31 10:58:45;;;;;;;;;;;;;;;-140.72;100.00;52370.56;5029705;28;20263;-66
2022/07/31 11:01:11;;;;;;;;;;;;;;;-140.72;100.00;52362.44;5037792;28;19952;-67
2022/07/31 11:03:40;;;;;;;;;;;;;;;-140.72;100.00;52352.31;5035120;28;19929;-67
2022/07/31 11:06:06;;;;;;;;;;;;;;;-140.72;100.00;52334.03;5002874;28;19917;-66
2022/07/31 11:08:45;;;;;;;;;;;;;;;-140.72;100.00;52350.28;5037481;28;19917;-66
2022/07/31 11:11:11;;;;;;;;;;;;;;;-140.72;100.00;52352.31;5036685;28;19972;-66
2022/07/31 11:13:45;;;;;;;;;;;;;;;-140.72;100.00;52344.19;5036680;28;19958;-66
2022/07/31 11:16:10;;;;;;;;;;;;;;;-140.72;100.00;52309.69;5033546;28;19929;-67
2022/07/31 11:18:36;;;;;;;;;;;;;;;-140.72;100.00;52325.94;5037794;28;20553;-67
2022/07/31 11:21:06;;;;;;;;;;;;;;;-140.72;100.00;52338.09;5034590;28;19921;-67
2022/07/31 11:23:32;;;;;;;;;;;;;;;-140.72;100.00;52305.63;5037690;28;19924;-66
2022/07/31 11:25:59;;;;;;;;;;;;;;;-140.72;100.00;52317.81;5035911;28;19925;-66
2022/07/31 11:28:24;;;;;;;;;;;;;;;-140.72;100.00;52301.59;5037093;28;19928;-66
2022/07/31 11:30:49;;;;;;;;;;;;;;;-140.72;100.00;52256.94;5037230;28;19917;-65
2022/07/31 11:33:15;;;;;;;;;;;;;;;-140.72;100.00;52254.91;5038129;28;19928;-66
2022/07/31 11:35:40;;;;;;;;;;;;;;;-140.72;100.00;52263.03;5036228;28;19922;-65
2022/07/31 11:38:06;;;;;;;;;;;;;;;-140.72;100.00;52273.19;5038991;28;19921;-65
2022/07/31 11:40:31;;;;;;;;;;;;;;;-140.72;100.00;52289.41;5033267;28;19965;-66
2022/07/31 11:42:57;;;;;;;;;;;;;;;-140.72;100.00;52265.06;5030884;28;19925;-67
2022/07/31 11:45:22;;;;;;;;;;;;;;;-140.72;100.00;52291.44;5023216;28;19917;-67
2022/07/31 11:47:48;;;;;;;;;;;;;;;-140.72;100.00;52330.00;5037910;28;20431;-66
2022/07/31 11:50:14;;;;;;;;;;;;;;;-140.72;100.00;52291.44;5037917;28;19944;-67
2022/07/31 11:52:42;;;;;;;;;;;;;;;-140.72;100.00;52372.59;5031096;28;20293;-66
2022/07/31 11:55:12;;;;;;;;;;;;;;;-140.72;100.00;52301.59;5017924;28;20063;-67
2022/07/31 11:57:38;;;;;;;;;;;;;;;-140.72;100.00;52295.50;5030582;28;19921;-66
2022/07/31 12:00:07;;;;;;;;;;;;;;;-140.72;100.00;52330.00;5029337;28;19929;-65
2022/07/31 12:02:32;;;;;;;;;;;;;;;-140.72;100.00;52301.59;5026687;28;19983;-65
2022/07/31 12:05:01;;;;;;;;;;;;;;;-140.72;100.00;52305.63;5027856;28;20361;-65
2022/07/31 12:07:26;;;;;;;;;;;;;;;-140.72;100.00;52313.75;5033099;28;19924;-66
2022/07/31 12:09:51;;;;;;;;;;;;;;;-140.72;100.00;52344.19;5027283;28;19917;-65
2022/07/31 12:12:17;;;;;;;;;;;;;;;-140.72;100.00;52311.72;5028899;28;19917;-67
2022/07/31 12:14:43;;;;;;;;;;;;;;;-140.72;100.00;52315.78;5032304;28;19924;-67